sensor_id;sensor_type;location;lat;lon;timestamp;P1;durP1;ratioP1;P2;durP2;ratioP2
41661;SDS011;27351;45.992;12.666;2023-07-20T00:02:20;3.70;;;1.48;;
41661;SDS011;27351;45.992;12.666;2023-07-20T00:04:46;5.60;;;1.57;;
41661;SDS011;27351;45.992;12.666;2023-07-20T00:07:12;3.37;;;1.40;;
41661;SDS011;27351;45.992;12.666;2023-07-20T00:09:37;3.95;;;1.60;;
41661;SDS011;27351;45.992;12.666;2023-07-20T00:12:03;4.80;;;1.20;;
41661;SDS011;27351;45.992;12.666;2023-07-20T00:14:28;4.33;;;1.60;;
41661;SDS011;27351;45.992;12.666;2023-07-20T00:16:55;4.82;;;1.95;;
41661;SDS011;27351;45.992;12.666;2023-07-20T00:19:23;3.67;;;1.50;;
41661;SDS011;27351;45.992;12.666;2023-07-20T00:21:48;4.80;;;1.60;;
41661;SDS011;27351;45.992;12.666;2023-07-20T00:24:14;4.77;;;1.50;;
41661;SDS011;27351;45.992;12.666;2023-07-20T00:26:40;6.75;;;2.50;;
41661;SDS011;27351;45.992;12.666;2023-07-20T00:29:05;4.43;;;1.40;;
41661;SDS011;27351;45.992;12.666;2023-07-20T00:31:31;3.37;;;1.97;;
41661;SDS011;27351;45.992;12.666;2023-07-20T00:33:57;5.63;;;1.63;;
41661;SDS011;27351;45.992;12.666;2023-07-20T00:36:22;4.90;;;1.73;;
41661;SDS011;27351;45.992;12.666;2023-07-20T00:38:48;4.53;;;1.87;;
41661;SDS011;27351;45.992;12.666;2023-07-20T00:41:15;3.80;;;1.80;;
41661;SDS011;27351;45.992;12.666;2023-07-20T00:43:41;4.05;;;1.90;;
41661;SDS011;27351;45.992;12.666;2023-07-20T00:46:07;5.07;;;2.40;;
41661;SDS011;27351;45.992;12.666;2023-07-20T00:48:33;6.85;;;1.88;;
41661;SDS011;27351;45.992;12.666;2023-07-20T00:50:59;5.10;;;2.00;;
41661;SDS011;27351;45.992;12.666;2023-07-20T00:53:25;4.70;;;1.80;;
41661;SDS011;27351;45.992;12.666;2023-07-20T00:55:52;4.13;;;1.80;;
41661;SDS011;27351;45.992;12.666;2023-07-20T00:58:18;6.07;;;2.13;;
41661;SDS011;27351;45.992;12.666;2023-07-20T01:00:44;3.57;;;1.60;;
41661;SDS011;27351;45.992;12.666;2023-07-20T01:03:09;5.23;;;1.93;;
41661;SDS011;27351;45.992;12.666;2023-07-20T01:05:40;5.55;;;1.90;;
41661;SDS011;27351;45.992;12.666;2023-07-20T01:08:11;4.35;;;1.85;;
41661;SDS011;27351;45.992;12.666;2023-07-20T01:13:03;5.28;;;1.75;;
41661;SDS011;27351;45.992;12.666;2023-07-20T01:15:30;4.85;;;1.83;;
41661;SDS011;27351;45.992;12.666;2023-07-20T01:17:57;3.90;;;1.80;;
41661;SDS011;27351;45.992;12.666;2023-07-20T01:20:23;4.43;;;1.65;;
41661;SDS011;27351;45.992;12.666;2023-07-20T01:25:45;4.50;;;2.30;;
41661;SDS011;27351;45.992;12.666;2023-07-20T01:30:52;7.00;;;2.40;;
41661;SDS011;27351;45.992;12.666;2023-07-20T01:33:21;5.30;;;1.70;;
41661;SDS011;27351;45.992;12.666;2023-07-20T01:35:49;4.72;;;1.77;;
41661;SDS011;27351;45.992;12.666;2023-07-20T01:38:15;3.97;;;1.92;;
41661;SDS011;27351;45.992;12.666;2023-07-20T01:40:41;6.10;;;2.00;;
41661;SDS011;27351;45.992;12.666;2023-07-20T01:43:07;5.00;;;1.67;;
41661;SDS011;27351;45.992;12.666;2023-07-20T01:45:34;6.75;;;2.05;;
41661;SDS011;27351;45.992;12.666;2023-07-20T01:48:00;3.80;;;1.88;;
41661;SDS011;27351;45.992;12.666;2023-07-20T01:50:25;4.67;;;1.67;;
41661;SDS011;27351;45.992;12.666;2023-07-20T01:52:51;4.65;;;1.55;;
41661;SDS011;27351;45.992;12.666;2023-07-20T01:55:17;3.90;;;1.60;;
41661;SDS011;27351;45.992;12.666;2023-07-20T01:57:42;4.90;;;1.70;;
41661;SDS011;27351;45.992;12.666;2023-07-20T02:00:08;3.92;;;1.65;;
41661;SDS011;27351;45.992;12.666;2023-07-20T02:02:40;5.57;;;2.05;;
41661;SDS011;27351;45.992;12.666;2023-07-20T02:05:06;4.77;;;1.87;;
41661;SDS011;27351;45.992;12.666;2023-07-20T02:07:32;4.77;;;1.67;;
41661;SDS011;27351;45.992;12.666;2023-07-20T02:09:58;4.27;;;1.90;;
41661;SDS011;27351;45.992;12.666;2023-07-20T02:12:23;5.90;;;2.63;;
41661;SDS011;27351;45.992;12.666;2023-07-20T02:14:49;4.63;;;1.88;;
41661;SDS011;27351;45.992;12.666;2023-07-20T02:17:16;3.40;;;2.00;;
41661;SDS011;27351;45.992;12.666;2023-07-20T02:19:42;5.85;;;1.98;;
41661;SDS011;27351;45.992;12.666;2023-07-20T02:22:08;3.10;;;1.73;;
41661;SDS011;27351;45.992;12.666;2023-07-20T02:24:33;5.67;;;2.30;;
41661;SDS011;27351;45.992;12.666;2023-07-20T02:26:59;5.40;;;2.10;;
41661;SDS011;27351;45.992;12.666;2023-07-20T02:29:25;5.10;;;2.15;;
41661;SDS011;27351;45.992;12.666;2023-07-20T02:31:50;7.32;;;2.30;;
41661;SDS011;27351;45.992;12.666;2023-07-20T02:34:16;6.00;;;1.80;;
41661;SDS011;27351;45.992;12.666;2023-07-20T02:36:41;5.65;;;2.33;;
41661;SDS011;27351;45.992;12.666;2023-07-20T02:39:08;5.97;;;2.00;;
41661;SDS011;27351;45.992;12.666;2023-07-20T02:41:34;7.30;;;2.72;;
41661;SDS011;27351;45.992;12.666;2023-07-20T02:43:59;4.93;;;2.10;;
41661;SDS011;27351;45.992;12.666;2023-07-20T02:46:26;4.35;;;2.00;;
41661;SDS011;27351;45.992;12.666;2023-07-20T02:48:52;6.97;;;1.85;;
41661;SDS011;27351;45.992;12.666;2023-07-20T02:51:18;4.72;;;2.10;;
41661;SDS011;27351;45.992;12.666;2023-07-20T02:53:43;5.28;;;1.70;;
41661;SDS011;27351;45.992;12.666;2023-07-20T02:56:09;7.73;;;2.13;;
41661;SDS011;27351;45.992;12.666;2023-07-20T02:58:35;5.05;;;1.80;;
41661;SDS011;27351;45.992;12.666;2023-07-20T03:01:02;4.85;;;1.85;;
41661;SDS011;27351;45.992;12.666;2023-07-20T03:03:28;4.80;;;2.17;;
41661;SDS011;27351;45.992;12.666;2023-07-20T03:05:54;6.10;;;2.57;;
41661;SDS011;27351;45.992;12.666;2023-07-20T03:08:21;5.38;;;2.28;;
41661;SDS011;27351;45.992;12.666;2023-07-20T03:10:49;3.35;;;1.77;;
41661;SDS011;27351;45.992;12.666;2023-07-20T03:13:15;4.13;;;1.80;;
41661;SDS011;27351;45.992;12.666;2023-07-20T03:15:41;5.33;;;2.03;;
41661;SDS011;27351;45.992;12.666;2023-07-20T03:18:08;6.65;;;2.67;;
41661;SDS011;27351;45.992;12.666;2023-07-20T03:20:35;4.85;;;2.17;;
41661;SDS011;27351;45.992;12.666;2023-07-20T03:23:01;8.07;;;2.67;;
41661;SDS011;27351;45.992;12.666;2023-07-20T03:25:27;5.57;;;2.00;;
41661;SDS011;27351;45.992;12.666;2023-07-20T03:27:53;5.47;;;2.15;;
41661;SDS011;27351;45.992;12.666;2023-07-20T03:30:19;7.00;;;2.13;;
41661;SDS011;27351;45.992;12.666;2023-07-20T03:32:45;4.33;;;2.33;;
41661;SDS011;27351;45.992;12.666;2023-07-20T03:35:10;6.20;;;2.00;;
41661;SDS011;27351;45.992;12.666;2023-07-20T03:37:36;6.00;;;2.30;;
41661;SDS011;27351;45.992;12.666;2023-07-20T03:40:03;4.47;;;2.20;;
41661;SDS011;27351;45.992;12.666;2023-07-20T03:42:30;5.28;;;2.38;;
41661;SDS011;27351;45.992;12.666;2023-07-20T03:44:56;4.43;;;2.30;;
41661;SDS011;27351;45.992;12.666;2023-07-20T03:47:21;5.72;;;2.53;;
41661;SDS011;27351;45.992;12.666;2023-07-20T03:49:47;6.77;;;2.27;;
41661;SDS011;27351;45.992;12.666;2023-07-20T03:52:13;4.83;;;2.27;;
41661;SDS011;27351;45.992;12.666;2023-07-20T03:54:38;4.87;;;2.20;;
41661;SDS011;27351;45.992;12.666;2023-07-20T03:57:04;3.83;;;1.98;;
41661;SDS011;27351;45.992;12.666;2023-07-20T03:59:29;5.33;;;2.13;;
41661;SDS011;27351;45.992;12.666;2023-07-20T04:01:55;4.00;;;1.90;;
41661;SDS011;27351;45.992;12.666;2023-07-20T04:04:21;6.03;;;2.33;;
41661;SDS011;27351;45.992;12.666;2023-07-20T04:06:46;5.47;;;2.33;;
41661;SDS011;27351;45.992;12.666;2023-07-20T04:09:12;5.47;;;2.00;;
41661;SDS011;27351;45.992;12.666;2023-07-20T04:11:38;4.47;;;2.10;;
41661;SDS011;27351;45.992;12.666;2023-07-20T04:14:03;6.03;;;1.98;;
41661;SDS011;27351;45.992;12.666;2023-07-20T04:16:29;5.60;;;2.10;;
41661;SDS011;27351;45.992;12.666;2023-07-20T04:18:55;7.33;;;2.53;;
41661;SDS011;27351;45.992;12.666;2023-07-20T04:21:21;5.50;;;2.10;;
41661;SDS011;27351;45.992;12.666;2023-07-20T04:23:47;5.50;;;2.20;;
41661;SDS011;27351;45.992;12.666;2023-07-20T04:26:13;5.43;;;2.33;;
41661;SDS011;27351;45.992;12.666;2023-07-20T04:28:40;5.57;;;2.30;;
41661;SDS011;27351;45.992;12.666;2023-07-20T04:31:11;4.63;;;2.22;;
41661;SDS011;27351;45.992;12.666;2023-07-20T04:33:37;6.78;;;2.88;;
41661;SDS011;27351;45.992;12.666;2023-07-20T04:36:04;5.20;;;2.53;;
41661;SDS011;27351;45.992;12.666;2023-07-20T04:38:33;5.38;;;2.42;;
41661;SDS011;27351;45.992;12.666;2023-07-20T04:41:12;5.37;;;2.43;;
41661;SDS011;27351;45.992;12.666;2023-07-20T04:43:41;7.25;;;2.58;;
41661;SDS011;27351;45.992;12.666;2023-07-20T04:46:07;5.65;;;2.60;;
41661;SDS011;27351;45.992;12.666;2023-07-20T04:48:35;4.93;;;2.10;;
41661;SDS011;27351;45.992;12.666;2023-07-20T04:51:01;6.47;;;2.80;;
41661;SDS011;27351;45.992;12.666;2023-07-20T04:53:26;4.63;;;2.03;;
41661;SDS011;27351;45.992;12.666;2023-07-20T04:55:53;6.10;;;2.47;;
41661;SDS011;27351;45.992;12.666;2023-07-20T04:58:21;5.32;;;2.90;;
41661;SDS011;27351;45.992;12.666;2023-07-20T05:00:48;5.17;;;2.47;;
41661;SDS011;27351;45.992;12.666;2023-07-20T05:03:14;5.82;;;2.33;;
41661;SDS011;27351;45.992;12.666;2023-07-20T05:05:41;5.82;;;2.40;;
41661;SDS011;27351;45.992;12.666;2023-07-20T05:08:07;5.60;;;2.00;;
41661;SDS011;27351;45.992;12.666;2023-07-20T05:10:32;3.95;;;1.77;;
41661;SDS011;27351;45.992;12.666;2023-07-20T05:12:58;5.05;;;2.10;;
41661;SDS011;27351;45.992;12.666;2023-07-20T05:15:24;9.48;;;2.55;;
41661;SDS011;27351;45.992;12.666;2023-07-20T05:17:51;3.65;;;1.73;;
41661;SDS011;27351;45.992;12.666;2023-07-20T05:20:17;4.63;;;2.15;;
41661;SDS011;27351;45.992;12.666;2023-07-20T05:22:43;3.70;;;1.57;;
41661;SDS011;27351;45.992;12.666;2023-07-20T05:25:09;3.00;;;1.50;;
41661;SDS011;27351;45.992;12.666;2023-07-20T05:27:36;3.77;;;1.40;;
41661;SDS011;27351;45.992;12.666;2023-07-20T05:30:01;4.37;;;1.47;;
41661;SDS011;27351;45.992;12.666;2023-07-20T05:32:28;2.83;;;1.38;;
41661;SDS011;27351;45.992;12.666;2023-07-20T05:34:53;4.07;;;1.80;;
41661;SDS011;27351;45.992;12.666;2023-07-20T05:37:19;5.73;;;2.27;;
41661;SDS011;27351;45.992;12.666;2023-07-20T05:39:45;4.10;;;1.50;;
41661;SDS011;27351;45.992;12.666;2023-07-20T05:42:11;4.53;;;1.40;;
41661;SDS011;27351;45.992;12.666;2023-07-20T05:44:36;3.35;;;1.40;;
41661;SDS011;27351;45.992;12.666;2023-07-20T05:47:02;4.40;;;1.47;;
41661;SDS011;27351;45.992;12.666;2023-07-20T05:49:28;3.20;;;1.50;;
41661;SDS011;27351;45.992;12.666;2023-07-20T05:51:54;4.75;;;1.55;;
41661;SDS011;27351;45.992;12.666;2023-07-20T05:54:20;5.57;;;1.60;;
41661;SDS011;27351;45.992;12.666;2023-07-20T05:56:46;3.35;;;1.40;;
41661;SDS011;27351;45.992;12.666;2023-07-20T05:59:11;3.95;;;2.00;;
41661;SDS011;27351;45.992;12.666;2023-07-20T06:01:37;4.93;;;1.65;;
41661;SDS011;27351;45.992;12.666;2023-07-20T06:04:03;4.37;;;1.70;;
41661;SDS011;27351;45.992;12.666;2023-07-20T06:06:28;5.05;;;1.85;;
41661;SDS011;27351;45.992;12.666;2023-07-20T06:08:54;4.50;;;1.88;;
41661;SDS011;27351;45.992;12.666;2023-07-20T06:11:20;3.47;;;1.47;;
41661;SDS011;27351;45.992;12.666;2023-07-20T06:13:46;4.50;;;1.50;;
41661;SDS011;27351;45.992;12.666;2023-07-20T06:16:11;3.33;;;1.20;;
41661;SDS011;27351;45.992;12.666;2023-07-20T06:18:37;4.43;;;1.33;;
41661;SDS011;27351;45.992;12.666;2023-07-20T06:21:03;4.93;;;1.30;;
41661;SDS011;27351;45.992;12.666;2023-07-20T06:23:28;5.57;;;2.13;;
41661;SDS011;27351;45.992;12.666;2023-07-20T06:25:54;5.38;;;1.30;;
41661;SDS011;27351;45.992;12.666;2023-07-20T06:28:20;3.67;;;1.43;;
41661;SDS011;27351;45.992;12.666;2023-07-20T06:30:45;3.85;;;1.20;;
41661;SDS011;27351;45.992;12.666;2023-07-20T06:33:11;3.27;;;1.40;;
41661;SDS011;27351;45.992;12.666;2023-07-20T06:35:36;3.63;;;1.42;;
41661;SDS011;27351;45.992;12.666;2023-07-20T06:38:02;4.30;;;1.57;;
41661;SDS011;27351;45.992;12.666;2023-07-20T06:40:28;4.18;;;1.90;;
41661;SDS011;27351;45.992;12.666;2023-07-20T06:42:54;1.87;;;0.93;;
41661;SDS011;27351;45.992;12.666;2023-07-20T06:45:21;4.63;;;1.83;;
41661;SDS011;27351;45.992;12.666;2023-07-20T06:47:46;3.47;;;1.20;;
41661;SDS011;27351;45.992;12.666;2023-07-20T06:50:12;3.40;;;1.40;;
41661;SDS011;27351;45.992;12.666;2023-07-20T06:52:38;3.87;;;1.40;;
41661;SDS011;27351;45.992;12.666;2023-07-20T06:55:05;2.55;;;1.40;;
41661;SDS011;27351;45.992;12.666;2023-07-20T06:57:31;3.83;;;1.70;;
41661;SDS011;27351;45.992;12.666;2023-07-20T06:59:57;2.80;;;1.33;;
41661;SDS011;27351;45.992;12.666;2023-07-20T07:02:23;3.38;;;1.40;;
41661;SDS011;27351;45.992;12.666;2023-07-20T07:04:48;2.83;;;1.33;;
41661;SDS011;27351;45.992;12.666;2023-07-20T07:07:14;4.70;;;1.40;;
41661;SDS011;27351;45.992;12.666;2023-07-20T07:09:40;3.10;;;1.30;;
41661;SDS011;27351;45.992;12.666;2023-07-20T07:12:06;2.75;;;1.38;;
41661;SDS011;27351;45.992;12.666;2023-07-20T07:14:32;3.83;;;1.30;;
41661;SDS011;27351;45.992;12.666;2023-07-20T07:16:57;3.33;;;1.30;;
41661;SDS011;27351;45.992;12.666;2023-07-20T07:19:23;2.75;;;1.13;;
41661;SDS011;27351;45.992;12.666;2023-07-20T07:21:49;3.50;;;1.50;;
41661;SDS011;27351;45.992;12.666;2023-07-20T07:24:14;3.92;;;1.30;;
41661;SDS011;27351;45.992;12.666;2023-07-20T07:26:40;3.97;;;1.83;;
41661;SDS011;27351;45.992;12.666;2023-07-20T07:29:05;2.42;;;1.20;;
41661;SDS011;27351;45.992;12.666;2023-07-20T07:31:33;4.30;;;1.10;;
41661;SDS011;27351;45.992;12.666;2023-07-20T07:33:59;3.03;;;1.13;;
41661;SDS011;27351;45.992;12.666;2023-07-20T07:36:25;3.80;;;1.57;;
41661;SDS011;27351;45.992;12.666;2023-07-20T07:38:50;2.47;;;1.00;;
41661;SDS011;27351;45.992;12.666;2023-07-20T07:41:16;3.10;;;1.10;;
41661;SDS011;27351;45.992;12.666;2023-07-20T07:43:41;4.05;;;1.10;;
41661;SDS011;27351;45.992;12.666;2023-07-20T07:46:07;3.33;;;1.00;;
41661;SDS011;27351;45.992;12.666;2023-07-20T07:48:33;3.87;;;1.00;;
41661;SDS011;27351;45.992;12.666;2023-07-20T07:50:58;4.68;;;1.27;;
41661;SDS011;27351;45.992;12.666;2023-07-20T07:53:24;3.27;;;1.03;;
41661;SDS011;27351;45.992;12.666;2023-07-20T07:55:51;3.05;;;1.20;;
41661;SDS011;27351;45.992;12.666;2023-07-20T07:58:17;3.70;;;1.10;;
41661;SDS011;27351;45.992;12.666;2023-07-20T08:00:42;1.90;;;1.10;;
41661;SDS011;27351;45.992;12.666;2023-07-20T08:03:09;2.60;;;1.00;;
41661;SDS011;27351;45.992;12.666;2023-07-20T08:05:35;4.72;;;1.38;;
41661;SDS011;27351;45.992;12.666;2023-07-20T08:08:04;2.73;;;1.13;;
41661;SDS011;27351;45.992;12.666;2023-07-20T08:10:29;2.40;;;1.02;;
41661;SDS011;27351;45.992;12.666;2023-07-20T08:12:55;3.73;;;1.27;;
41661;SDS011;27351;45.992;12.666;2023-07-20T08:15:21;3.15;;;1.20;;
41661;SDS011;27351;45.992;12.666;2023-07-20T08:17:46;2.33;;;1.25;;
41661;SDS011;27351;45.992;12.666;2023-07-20T08:20:13;3.90;;;1.23;;
41661;SDS011;27351;45.992;12.666;2023-07-20T08:22:39;4.23;;;1.37;;
41661;SDS011;27351;45.992;12.666;2023-07-20T08:25:06;5.07;;;1.42;;
41661;SDS011;27351;45.992;12.666;2023-07-20T08:27:32;3.85;;;1.10;;
41661;SDS011;27351;45.992;12.666;2023-07-20T08:29:57;2.50;;;1.20;;
41661;SDS011;27351;45.992;12.666;2023-07-20T08:32:23;1.93;;;0.93;;
41661;SDS011;27351;45.992;12.666;2023-07-20T08:34:48;2.83;;;1.13;;
41661;SDS011;27351;45.992;12.666;2023-07-20T08:37:14;3.37;;;1.23;;
41661;SDS011;27351;45.992;12.666;2023-07-20T08:39:40;3.40;;;1.20;;
41661;SDS011;27351;45.992;12.666;2023-07-20T08:42:05;3.47;;;1.27;;
41661;SDS011;27351;45.992;12.666;2023-07-20T08:44:32;2.90;;;1.17;;
41661;SDS011;27351;45.992;12.666;2023-07-20T08:46:58;2.92;;;1.20;;
41661;SDS011;27351;45.992;12.666;2023-07-20T08:49:25;2.55;;;1.17;;
41661;SDS011;27351;45.992;12.666;2023-07-20T08:51:51;5.28;;;1.27;;
41661;SDS011;27351;45.992;12.666;2023-07-20T08:54:17;3.13;;;1.30;;
41661;SDS011;27351;45.992;12.666;2023-07-20T08:56:42;3.50;;;1.60;;
41661;SDS011;27351;45.992;12.666;2023-07-20T08:59:10;5.18;;;1.40;;
41661;SDS011;27351;45.992;12.666;2023-07-20T09:01:38;3.40;;;1.57;;
41661;SDS011;27351;45.992;12.666;2023-07-20T09:04:04;3.22;;;1.30;;
41661;SDS011;27351;45.992;12.666;2023-07-20T09:06:30;4.17;;;1.20;;
41661;SDS011;27351;45.992;12.666;2023-07-20T09:08:55;3.38;;;1.10;;
41661;SDS011;27351;45.992;12.666;2023-07-20T09:11:21;2.97;;;1.20;;
41661;SDS011;27351;45.992;12.666;2023-07-20T09:13:47;2.95;;;1.30;;
41661;SDS011;27351;45.992;12.666;2023-07-20T09:16:15;3.50;;;1.17;;
41661;SDS011;27351;45.992;12.666;2023-07-20T09:18:41;4.43;;;1.30;;
41661;SDS011;27351;45.992;12.666;2023-07-20T09:21:07;2.60;;;1.20;;
41661;SDS011;27351;45.992;12.666;2023-07-20T09:23:36;3.03;;;1.38;;
41661;SDS011;27351;45.992;12.666;2023-07-20T09:26:12;5.18;;;1.50;;
41661;SDS011;27351;45.992;12.666;2023-07-20T09:28:42;3.97;;;1.20;;
41661;SDS011;27351;45.992;12.666;2023-07-20T09:31:27;3.63;;;1.27;;
41661;SDS011;27351;45.992;12.666;2023-07-20T09:33:53;3.88;;;1.40;;
41661;SDS011;27351;45.992;12.666;2023-07-20T09:36:19;3.22;;;1.30;;
41661;SDS011;27351;45.992;12.666;2023-07-20T09:38:45;4.65;;;1.30;;
41661;SDS011;27351;45.992;12.666;2023-07-20T09:41:14;2.35;;;1.02;;
41661;SDS011;27351;45.992;12.666;2023-07-20T09:43:43;3.00;;;1.20;;
41661;SDS011;27351;45.992;12.666;2023-07-20T09:46:10;3.40;;;1.25;;
41661;SDS011;27351;45.992;12.666;2023-07-20T09:48:36;2.83;;;1.30;;
41661;SDS011;27351;45.992;12.666;2023-07-20T09:51:02;4.40;;;1.43;;
41661;SDS011;27351;45.992;12.666;2023-07-20T09:53:30;6.03;;;1.70;;
41661;SDS011;27351;45.992;12.666;2023-07-20T09:55:57;5.60;;;1.88;;
41661;SDS011;27351;45.992;12.666;2023-07-20T09:58:23;4.18;;;1.20;;
41661;SDS011;27351;45.992;12.666;2023-07-20T10:00:51;4.22;;;1.50;;
41661;SDS011;27351;45.992;12.666;2023-07-20T10:03:21;5.25;;;1.42;;
41661;SDS011;27351;45.992;12.666;2023-07-20T10:05:49;3.53;;;1.20;;
41661;SDS011;27351;45.992;12.666;2023-07-20T10:08:16;7.65;;;1.73;;
41661;SDS011;27351;45.992;12.666;2023-07-20T10:10:44;5.27;;;1.50;;
41661;SDS011;27351;45.992;12.666;2023-07-20T10:13:13;3.45;;;1.33;;
41661;SDS011;27351;45.992;12.666;2023-07-20T10:15:53;5.00;;;1.70;;
41661;SDS011;27351;45.992;12.666;2023-07-20T10:18:31;5.88;;;1.45;;
41661;SDS011;27351;45.992;12.666;2023-07-20T10:20:58;3.67;;;1.25;;
41661;SDS011;27351;45.992;12.666;2023-07-20T10:23:25;4.67;;;1.53;;
41661;SDS011;27351;45.992;12.666;2023-07-20T10:25:51;4.18;;;1.30;;
41661;SDS011;27351;45.992;12.666;2023-07-20T10:28:17;2.78;;;1.23;;
41661;SDS011;27351;45.992;12.666;2023-07-20T10:30:43;3.47;;;1.30;;
41661;SDS011;27351;45.992;12.666;2023-07-20T10:33:09;5.30;;;1.70;;
41661;SDS011;27351;45.992;12.666;2023-07-20T10:35:55;3.57;;;1.50;;
41661;SDS011;27351;45.992;12.666;2023-07-20T10:38:40;3.45;;;1.35;;
41661;SDS011;27351;45.992;12.666;2023-07-20T10:41:53;2.63;;;1.38;;
41661;SDS011;27351;45.992;12.666;2023-07-20T10:43:55;2.58;;;1.38;;
41661;SDS011;27351;45.992;12.666;2023-07-20T10:46:41;5.30;;;1.90;;
41661;SDS011;27351;45.992;12.666;2023-07-20T10:49:09;5.57;;;1.88;;
41661;SDS011;27351;45.992;12.666;2023-07-20T10:54:07;4.38;;;1.50;;
41661;SDS011;27351;45.992;12.666;2023-07-20T10:56:33;3.50;;;1.40;;
41661;SDS011;27351;45.992;12.666;2023-07-20T10:58:59;3.67;;;1.45;;
41661;SDS011;27351;45.992;12.666;2023-07-20T11:01:28;3.95;;;1.70;;
41661;SDS011;27351;45.992;12.666;2023-07-20T11:03:59;5.30;;;1.80;;
41661;SDS011;27351;45.992;12.666;2023-07-20T11:09:03;2.75;;;1.20;;
41661;SDS011;27351;45.992;12.666;2023-07-20T11:11:29;3.50;;;1.40;;
41661;SDS011;27351;45.992;12.666;2023-07-20T11:13:56;4.10;;;1.67;;
41661;SDS011;27351;45.992;12.666;2023-07-20T11:16:41;3.33;;;1.42;;
41661;SDS011;27351;45.992;12.666;2023-07-20T11:19:14;6.90;;;1.73;;
41661;SDS011;27351;45.992;12.666;2023-07-20T11:21:43;4.10;;;1.40;;
41661;SDS011;27351;45.992;12.666;2023-07-20T11:24:10;3.05;;;1.60;;
41661;SDS011;27351;45.992;12.666;2023-07-20T11:26:49;3.90;;;1.30;;
41661;SDS011;27351;45.992;12.666;2023-07-20T11:29:15;4.65;;;1.70;;
41661;SDS011;27351;45.992;12.666;2023-07-20T11:31:42;4.97;;;1.52;;
41661;SDS011;27351;45.992;12.666;2023-07-20T11:34:11;3.07;;;1.40;;
41661;SDS011;27351;45.992;12.666;2023-07-20T11:36:41;3.20;;;1.50;;
41661;SDS011;27351;45.992;12.666;2023-07-20T11:39:08;3.70;;;1.60;;
41661;SDS011;27351;45.992;12.666;2023-07-20T11:41:34;3.22;;;1.20;;
41661;SDS011;27351;45.992;12.666;2023-07-20T11:44:00;4.47;;;1.40;;
41661;SDS011;27351;45.992;12.666;2023-07-20T11:46:27;3.30;;;1.48;;
41661;SDS011;27351;45.992;12.666;2023-07-20T11:48:58;4.28;;;1.40;;
41661;SDS011;27351;45.992;12.666;2023-07-20T11:51:27;4.55;;;1.70;;
41661;SDS011;27351;45.992;12.666;2023-07-20T11:53:53;4.35;;;1.73;;
41661;SDS011;27351;45.992;12.666;2023-07-20T11:56:20;3.22;;;1.23;;
41661;SDS011;27351;45.992;12.666;2023-07-20T11:58:45;4.00;;;1.70;;
41661;SDS011;27351;45.992;12.666;2023-07-20T12:01:12;4.57;;;1.58;;
41661;SDS011;27351;45.992;12.666;2023-07-20T12:03:38;3.10;;;1.50;;
41661;SDS011;27351;45.992;12.666;2023-07-20T12:06:07;3.22;;;1.40;;
41661;SDS011;27351;45.992;12.666;2023-07-20T12:08:33;5.15;;;1.25;;
41661;SDS011;27351;45.992;12.666;2023-07-20T12:10:59;6.27;;;1.90;;
41661;SDS011;27351;45.992;12.666;2023-07-20T12:13:44;4.35;;;1.48;;
41661;SDS011;27351;45.992;12.666;2023-07-20T12:16:13;3.97;;;1.48;;
41661;SDS011;27351;45.992;12.666;2023-07-20T12:18:40;2.15;;;1.20;;
41661;SDS011;27351;45.992;12.666;2023-07-20T12:21:06;3.28;;;1.65;;
41661;SDS011;27351;45.992;12.666;2023-07-20T12:23:36;2.97;;;1.17;;
41661;SDS011;27351;45.992;12.666;2023-07-20T12:26:03;3.47;;;1.80;;
41661;SDS011;27351;45.992;12.666;2023-07-20T12:28:31;3.20;;;1.10;;
41661;SDS011;27351;45.992;12.666;2023-07-20T12:30:57;2.83;;;1.30;;
41661;SDS011;27351;45.992;12.666;2023-07-20T12:33:22;4.97;;;1.63;;
41661;SDS011;27351;45.992;12.666;2023-07-20T12:35:51;4.00;;;1.40;;
41661;SDS011;27351;45.992;12.666;2023-07-20T12:38:21;4.53;;;1.40;;
41661;SDS011;27351;45.992;12.666;2023-07-20T12:40:47;3.78;;;1.48;;
41661;SDS011;27351;45.992;12.666;2023-07-20T12:43:13;3.42;;;1.45;;
41661;SDS011;27351;45.992;12.666;2023-07-20T12:45:38;3.97;;;1.60;;
41661;SDS011;27351;45.992;12.666;2023-07-20T12:48:04;3.10;;;1.60;;
41661;SDS011;27351;45.992;12.666;2023-07-20T12:50:30;3.70;;;1.30;;
41661;SDS011;27351;45.992;12.666;2023-07-20T12:52:55;3.33;;;1.50;;
41661;SDS011;27351;45.992;12.666;2023-07-20T12:55:21;4.10;;;1.40;;
41661;SDS011;27351;45.992;12.666;2023-07-20T12:57:46;4.40;;;1.60;;
41661;SDS011;27351;45.992;12.666;2023-07-20T13:00:14;3.85;;;1.50;;
41661;SDS011;27351;45.992;12.666;2023-07-20T13:02:40;4.20;;;1.30;;
41661;SDS011;27351;45.992;12.666;2023-07-20T13:05:06;4.40;;;1.77;;
41661;SDS011;27351;45.992;12.666;2023-07-20T13:07:33;3.70;;;1.50;;
41661;SDS011;27351;45.992;12.666;2023-07-20T13:09:59;4.25;;;1.52;;
41661;SDS011;27351;45.992;12.666;2023-07-20T13:12:29;5.07;;;1.50;;
41661;SDS011;27351;45.992;12.666;2023-07-20T13:14:55;4.40;;;1.40;;
41661;SDS011;27351;45.992;12.666;2023-07-20T13:17:21;3.40;;;1.30;;
41661;SDS011;27351;45.992;12.666;2023-07-20T13:19:47;4.13;;;1.33;;
41661;SDS011;27351;45.992;12.666;2023-07-20T13:22:13;2.70;;;1.23;;
41661;SDS011;27351;45.992;12.666;2023-07-20T13:24:40;3.53;;;1.40;;
41661;SDS011;27351;45.992;12.666;2023-07-20T13:27:06;3.37;;;1.33;;
41661;SDS011;27351;45.992;12.666;2023-07-20T13:29:31;3.72;;;1.42;;
41661;SDS011;27351;45.992;12.666;2023-07-20T13:31:58;3.55;;;1.35;;
41661;SDS011;27351;45.992;12.666;2023-07-20T13:34:25;3.50;;;1.23;;
41661;SDS011;27351;45.992;12.666;2023-07-20T13:36:50;3.47;;;1.50;;
41661;SDS011;27351;45.992;12.666;2023-07-20T13:39:16;3.60;;;1.63;;
41661;SDS011;27351;45.992;12.666;2023-07-20T13:41:42;4.47;;;1.33;;
41661;SDS011;27351;45.992;12.666;2023-07-20T13:44:07;4.18;;;1.58;;
41661;SDS011;27351;45.992;12.666;2023-07-20T13:46:33;3.87;;;1.40;;
41661;SDS011;27351;45.992;12.666;2023-07-20T13:48:59;4.00;;;1.42;;
41661;SDS011;27351;45.992;12.666;2023-07-20T13:51:25;4.25;;;1.30;;
41661;SDS011;27351;45.992;12.666;2023-07-20T13:53:51;3.25;;;1.30;;
41661;SDS011;27351;45.992;12.666;2023-07-20T13:56:17;3.57;;;1.47;;
41661;SDS011;27351;45.992;12.666;2023-07-20T13:58:43;2.80;;;1.23;;
41661;SDS011;27351;45.992;12.666;2023-07-20T14:01:08;3.90;;;1.47;;
41661;SDS011;27351;45.992;12.666;2023-07-20T14:03:34;4.38;;;1.95;;
41661;SDS011;27351;45.992;12.666;2023-07-20T14:05:59;4.73;;;2.00;;
41661;SDS011;27351;45.992;12.666;2023-07-20T14:08:25;3.35;;;1.45;;
41661;SDS011;27351;45.992;12.666;2023-07-20T14:10:51;4.80;;;1.60;;
41661;SDS011;27351;45.992;12.666;2023-07-20T14:13:16;3.50;;;1.60;;
41661;SDS011;27351;45.992;12.666;2023-07-20T14:15:42;3.40;;;1.63;;
41661;SDS011;27351;45.992;12.666;2023-07-20T14:18:07;2.95;;;1.30;;
41661;SDS011;27351;45.992;12.666;2023-07-20T14:20:33;3.60;;;1.50;;
41661;SDS011;27351;45.992;12.666;2023-07-20T14:22:59;4.33;;;1.67;;
41661;SDS011;27351;45.992;12.666;2023-07-20T14:25:25;3.53;;;1.30;;
41661;SDS011;27351;45.992;12.666;2023-07-20T14:27:50;5.80;;;2.47;;
41661;SDS011;27351;45.992;12.666;2023-07-20T14:30:16;4.93;;;1.60;;
41661;SDS011;27351;45.992;12.666;2023-07-20T14:32:42;5.03;;;1.67;;
41661;SDS011;27351;45.992;12.666;2023-07-20T14:35:07;5.40;;;1.50;;
41661;SDS011;27351;45.992;12.666;2023-07-20T14:37:34;4.97;;;2.10;;
41661;SDS011;27351;45.992;12.666;2023-07-20T14:40:00;4.93;;;1.35;;
41661;SDS011;27351;45.992;12.666;2023-07-20T14:42:26;3.63;;;1.40;;
41661;SDS011;27351;45.992;12.666;2023-07-20T14:44:52;3.88;;;1.60;;